createdAt,value
2022-08-31T00:00:06.234Z,97283.50
2022-08-31T00:02:31.075Z,97288.81
2022-08-31T00:04:33.776Z,97275.56
2022-08-31T00:06:37.407Z,97289.81
2022-08-31T00:08:39.966Z,97277.63
2022-08-31T00:10:46.132Z,97278.59
2022-08-31T00:12:49.955Z,97278.88
2022-08-31T00:14:52.721Z,97279.25
2022-08-31T00:16:55.621Z,97287.78
2022-08-31T00:18:59.590Z,97291.75
2022-08-31T00:21:02.413Z,97290.22
2022-08-31T00:23:05.865Z,97287.88
2022-08-31T00:25:09.480Z,97286.97
2022-08-31T00:27:15.227Z,97286.47
2022-08-31T00:29:17.837Z,97287.13
2022-08-31T00:31:20.665Z,97284.34
2022-08-31T00:33:24.336Z,97284.34
2022-08-31T00:35:28.696Z,97284.06
2022-08-31T00:37:31.363Z,97287.03
2022-08-31T00:39:33.955Z,97292.25
2022-08-31T00:41:38.615Z,97297.09
2022-08-31T00:43:47.479Z,97296.22
2022-08-31T00:45:50.275Z,97296.41
2022-08-31T00:47:53.751Z,97292.28
2022-08-31T00:49:56.433Z,97296.66
2022-08-31T00:52:09.712Z,97309.91
2022-08-31T00:54:15.668Z,97299.75
2022-08-31T00:56:19.131Z,97299.00
2022-08-31T00:58:22.392Z,97300.72
2022-08-31T01:00:29.771Z,97305.13
2022-08-31T01:02:32.424Z,97313.56
2022-08-31T01:04:35.677Z,97310.66
2022-08-31T01:06:38.448Z,97325.22
2022-08-31T01:08:43.034Z,97332.66
2022-08-31T01:10:47.059Z,97337.63
2022-08-31T01:12:53.249Z,97346.53
2022-08-31T01:14:56.623Z,97360.63
2022-08-31T01:16:59.332Z,97359.56
2022-08-31T01:19:04.484Z,97364.72
2022-08-31T01:21:22.335Z,97366.66
2022-08-31T01:23:29.350Z,97364.13
2022-08-31T01:25:33.896Z,97368.72
2022-08-31T01:27:38.036Z,97373.28
2022-08-31T01:29:40.697Z,97376.81
2022-08-31T01:31:45.254Z,97375.94
2022-08-31T01:33:48.232Z,97374.97
2022-08-31T01:35:50.813Z,97379.31
2022-08-31T01:37:54.509Z,97375.97
2022-08-31T01:39:59.147Z,97385.09
2022-08-31T01:42:01.801Z,97393.81
2022-08-31T01:44:04.445Z,97395.72
2022-08-31T01:46:10.491Z,97398.41
2022-08-31T01:48:13.799Z,97393.44
2022-08-31T01:50:16.536Z,97398.03
2022-08-31T01:52:19.251Z,97400.78
2022-08-31T01:54:24.979Z,97401.19
2022-08-31T01:56:31.960Z,97395.28
2022-08-31T01:58:34.550Z,97390.69
2022-08-31T02:00:37.801Z,97384.53
2022-08-31T02:02:41.930Z,97382.00
2022-08-31T02:04:45.792Z,97390.53
2022-08-31T02:06:50.729Z,97390.44
2022-08-31T02:08:53.503Z,97390.19
2022-08-31T02:10:56.045Z,97392.59
2022-08-31T02:13:00.071Z,97397.28
2022-08-31T02:15:02.744Z,97393.16
2022-08-31T02:17:05.557Z,97390.63
2022-08-31T02:19:08.226Z,97394.47
2022-08-31T02:21:12.465Z,97387.13
2022-08-31T02:23:15.280Z,97389.41
2022-08-31T02:25:18.706Z,97390.47
2022-08-31T02:27:21.299Z,97388.66
2022-08-31T02:29:25.277Z,97384.19
2022-08-31T02:31:28.035Z,97381.19
2022-08-31T02:33:30.705Z,97387.22
2022-08-31T02:35:34.107Z,97386.84
2022-08-31T02:37:39.711Z,97394.06
2022-08-31T02:39:42.382Z,97389.00
2022-08-31T02:41:45.091Z,97384.66
2022-08-31T02:43:47.686Z,97378.69
2022-08-31T02:45:53.666Z,97376.16
2022-08-31T02:47:56.369Z,97379.03
2022-08-31T02:49:59.414Z,97386.38
2022-08-31T02:52:02.041Z,97375.78
2022-08-31T02:54:04.709Z,97377.34
2022-08-31T02:56:08.851Z,97383.31
2022-08-31T02:58:13.228Z,97381.75
2022-08-31T03:00:16.254Z,97384.41
2022-08-31T03:02:20.415Z,97385.00
2022-08-31T03:04:23.019Z,97389.84
2022-08-31T03:06:25.637Z,97392.03
2022-08-31T03:08:28.320Z,97389.41
2022-08-31T03:10:33.800Z,97389.72
2022-08-31T03:12:36.951Z,97384.34
2022-08-31T03:14:39.567Z,97384.34
2022-08-31T03:16:42.694Z,97383.75
2022-08-31T03:18:48.715Z,97381.34
2022-08-31T03:20:54.450Z,97372.66
2022-08-31T03:22:57.330Z,97366.88
2022-08-31T03:25:02.281Z,97373.34
2022-08-31T03:27:05.084Z,97377.47
2022-08-31T03:29:07.756Z,97373.25
2022-08-31T03:31:11.003Z,97379.28
2022-08-31T03:33:14.466Z,97370.16
2022-08-31T03:35:19.183Z,97374.13
2022-08-31T03:37:21.959Z,97376.59
2022-08-31T03:39:24.561Z,97358.44
2022-08-31T03:41:27.560Z,97349.66
2022-08-31T03:43:30.228Z,97362.03
2022-08-31T03:45:33.476Z,97362.38
2022-08-31T03:47:37.122Z,97377.63
2022-08-31T03:49:48.685Z,97378.72
2022-08-31T03:51:52.754Z,97387.97
2022-08-31T03:53:55.549Z,97391.38
2022-08-31T03:56:02.029Z,97384.16
2022-08-31T03:58:04.851Z,97386.06
2022-08-31T04:00:13.217Z,97387.97
2022-08-31T04:02:15.857Z,97385.44
2022-08-31T04:04:18.511Z,97393.75
2022-08-31T04:06:21.222Z,97400.50
2022-08-31T04:08:25.756Z,97399.03
2022-08-31T04:10:28.417Z,97404.19
2022-08-31T04:12:31.058Z,97404.81
2022-08-31T04:14:33.652Z,97394.06
2022-08-31T04:16:37.308Z,97403.66
2022-08-31T04:18:40.468Z,97396.88
2022-08-31T04:20:43.060Z,97393.66
2022-08-31T04:22:45.682Z,97405.97
2022-08-31T04:24:49.626Z,97412.41
2022-08-31T04:26:53.604Z,97406.38
2022-08-31T04:28:57.355Z,97400.59
2022-08-31T04:30:59.968Z,97400.28
2022-08-31T04:33:04.719Z,97410.13
2022-08-31T04:35:08.457Z,97407.34
2022-08-31T04:37:14.384Z,97410.00
2022-08-31T04:39:16.966Z,97408.22
2022-08-31T04:41:22.768Z,97408.28
2022-08-31T04:43:25.358Z,97405.66
2022-08-31T04:45:28.212Z,97409.66
2022-08-31T04:47:31.841Z,97405.34
2022-08-31T04:49:34.522Z,97417.69
2022-08-31T04:51:39.306Z,97423.09
2022-08-31T04:53:42.910Z,97410.75
2022-08-31T04:55:45.453Z,97408.81
2022-08-31T04:57:49.365Z,97404.38
2022-08-31T04:59:53.485Z,97410.75
2022-08-31T05:01:56.309Z,97409.66
2022-08-31T05:03:59.435Z,97409.28
2022-08-31T05:06:02.034Z,97411.75
2022-08-31T05:08:05.198Z,97425.03
2022-08-31T05:10:08.402Z,97420.50
2022-08-31T05:12:11.005Z,97420.50
2022-08-31T05:14:15.017Z,97422.19
2022-08-31T05:16:18.647Z,97426.91
2022-08-31T05:18:21.263Z,97428.50
2022-08-31T05:20:23.899Z,97435.56
2022-08-31T05:22:26.521Z,97439.81
2022-08-31T05:24:30.201Z,97445.38
2022-08-31T05:26:35.853Z,97457.34
2022-08-31T05:28:40.563Z,97467.06
2022-08-31T05:30:45.871Z,97475.00
2022-08-31T05:32:48.556Z,97474.69
2022-08-31T05:34:52.077Z,97468.44
2022-08-31T05:36:57.113Z,97470.84
2022-08-31T05:39:01.473Z,97470.53
2022-08-31T05:41:06.071Z,97466.03
2022-08-31T05:43:08.639Z,97462.72
2022-08-31T05:45:11.601Z,97457.88
2022-08-31T05:47:15.554Z,97455.97
2022-08-31T05:49:18.108Z,97462.63
2022-08-31T05:51:20.858Z,97468.38
2022-08-31T05:53:23.427Z,97476.19
2022-08-31T05:55:25.999Z,97462.59
2022-08-31T05:57:28.645Z,97463.69
2022-08-31T05:59:32.072Z,97463.56
2022-08-31T06:01:37.658Z,97462.63
2022-08-31T06:03:42.064Z,97467.19
2022-08-31T06:05:45.746Z,97460.53
2022-08-31T06:07:51.376Z,97469.28
2022-08-31T06:09:53.980Z,97459.56
2022-08-31T06:11:58.886Z,97456.50
2022-08-31T06:14:05.582Z,97464.31
2022-08-31T06:16:09.760Z,97465.34
2022-08-31T06:18:12.541Z,97472.53
2022-08-31T06:20:18.021Z,97472.66
2022-08-31T06:22:20.870Z,97469.28
2022-08-31T06:24:23.435Z,97470.13
2022-08-31T06:26:28.914Z,97472.53
2022-08-31T06:28:32.636Z,97482.19
2022-08-31T06:30:47.806Z,97481.03
2022-08-31T06:32:58.868Z,97472.66
2022-08-31T06:35:01.951Z,97476.78
2022-08-31T06:37:06.782Z,97470.53
2022-08-31T06:39:12.361Z,97479.31
2022-08-31T06:41:16.954Z,97478.56
2022-08-31T06:43:20.014Z,97479.75
2022-08-31T06:45:22.741Z,97477.84
2022-08-31T06:47:26.079Z,97483.34
2022-08-31T06:49:28.717Z,97478.16
2022-08-31T06:51:36.414Z,97481.44
2022-08-31T06:53:42.451Z,97477.13
2022-08-31T06:55:45.966Z,97474.66
2022-08-31T06:57:48.639Z,97478.16
2022-08-31T06:59:53.639Z,97475.41
2022-08-31T07:01:56.329Z,97479.84
2022-08-31T07:04:01.072Z,97482.47
2022-08-31T07:06:09.945Z,97473.41
2022-08-31T07:08:12.532Z,97484.19
2022-08-31T07:10:18.759Z,97473.50
2022-08-31T07:12:22.152Z,97484.19
2022-08-31T07:14:26.870Z,97486.59
2022-08-31T07:16:31.299Z,97477.00
2022-08-31T07:18:34.120Z,97478.06
2022-08-31T07:20:36.731Z,97493.09
2022-08-31T07:22:39.295Z,97489.88
2022-08-31T07:24:41.871Z,97492.75
2022-08-31T07:26:49.825Z,97491.91
2022-08-31T07:28:53.574Z,97491.16
2022-08-31T07:30:56.348Z,97505.22
2022-08-31T07:32:58.996Z,97498.47
2022-08-31T07:35:01.581Z,97498.78
2022-08-31T07:37:24.180Z,97494.53
2022-08-31T07:39:45.145Z,97506.19
2022-08-31T07:42:06.753Z,97516.66
2022-08-31T07:44:10.995Z,97519.59
2022-08-31T07:46:14.113Z,97526.34
2022-08-31T07:48:17.290Z,97523.16
2022-08-31T07:50:21.199Z,97532.34
2022-08-31T07:52:26.459Z,97532.16
2022-08-31T07:54:29.178Z,97522.34
2022-08-31T07:56:34.802Z,97525.19
2022-08-31T07:58:40.198Z,97531.31
2022-08-31T08:00:43.265Z,97526.47
2022-08-31T08:02:52.894Z,97528.66
2022-08-31T08:04:55.976Z,97536.81
2022-08-31T08:07:05.836Z,97542.22
2022-08-31T08:09:24.596Z,97535.66
2022-08-31T08:11:27.940Z,97536.97
2022-08-31T08:13:31.941Z,97534.09
2022-08-31T08:15:37.348Z,97536.66
2022-08-31T08:17:43.071Z,97540.34
2022-08-31T08:19:45.661Z,97545.09
2022-08-31T08:21:48.874Z,97537.69
2022-08-31T08:23:54.009Z,97535.78
2022-08-31T08:26:01.154Z,97537.25
2022-08-31T08:28:22.601Z,97536.09
2022-08-31T08:30:26.875Z,97539.81
2022-08-31T08:32:31.771Z,97537.34
2022-08-31T08:34:34.389Z,97538.09
2022-08-31T08:36:40.323Z,97536.66
2022-08-31T08:38:43.953Z,97533.59
2022-08-31T08:40:47.431Z,97543.19
2022-08-31T08:42:50.241Z,97542.88
2022-08-31T08:44:52.874Z,97548.94
2022-08-31T08:46:58.433Z,97551.66
2022-08-31T08:49:10.112Z,97548.38
2022-08-31T08:51:16.609Z,97549.44
2022-08-31T08:53:23.752Z,97557.25
2022-08-31T08:55:34.943Z,97549.75
2022-08-31T08:57:41.220Z,97547.00
2022-08-31T08:59:45.247Z,97552.91
2022-08-31T09:01:50.540Z,97556.81
2022-08-31T09:04:01.139Z,97563.72
2022-08-31T09:06:14.267Z,97561.69
2022-08-31T09:08:32.248Z,97559.06
2022-08-31T09:10:41.898Z,97561.16
2022-08-31T09:12:51.676Z,97556.81
2022-08-31T09:15:15.420Z,97553.34
2022-08-31T09:17:34.369Z,97553.97
2022-08-31T09:19:50.957Z,97556.38
2022-08-31T09:21:57.215Z,97558.09
2022-08-31T09:24:04.016Z,97551.00
2022-08-31T09:26:08.544Z,97552.69
2022-08-31T09:28:16.362Z,97552.88
2022-08-31T09:30:52.149Z,97550.16
2022-08-31T09:32:57.971Z,97544.41
2022-08-31T09:35:03.616Z,97547.44
2022-08-31T09:37:17.170Z,97548.41
2022-08-31T09:39:22.740Z,97549.78
2022-08-31T09:41:35.492Z,97549.56
2022-08-31T09:43:38.679Z,97546.56
2022-08-31T09:45:54.798Z,97543.28
2022-08-31T09:48:01.262Z,97548.69
2022-08-31T09:50:04.400Z,97545.53
2022-08-31T09:52:46.743Z,97548.94
2022-08-31T09:55:12.575Z,97550.50
2022-08-31T09:57:15.232Z,97547.75
2022-08-31T09:59:30.805Z,97545.31
2022-08-31T10:01:44.080Z,97544.91
2022-08-31T10:03:47.927Z,97534.28
2022-08-31T10:05:54.577Z,97533.66
2022-08-31T10:08:04.920Z,97537.13
2022-08-31T10:10:16.026Z,97539.88
2022-08-31T10:12:42.228Z,97543.28
2022-08-31T10:14:52.030Z,97547.50
2022-08-31T10:17:02.749Z,97553.66
2022-08-31T10:19:09.681Z,97548.56
2022-08-31T10:21:21.204Z,97547.44
2022-08-31T10:23:35.715Z,97547.53
2022-08-31T10:25:46.796Z,97551.44
2022-08-31T10:27:53.081Z,97551.44
2022-08-31T10:30:00.602Z,97553.66
2022-08-31T10:32:21.152Z,97555.13
2022-08-31T10:34:43.868Z,97559.84
2022-08-31T10:36:50.107Z,97552.34
2022-08-31T10:38:57.752Z,97560.53
2022-08-31T10:41:15.852Z,97558.75
2022-08-31T10:43:21.758Z,97557.78
2022-08-31T10:45:25.299Z,97554.75
2022-08-31T10:47:41.532Z,97547.59
2022-08-31T10:49:44.111Z,97556.41
2022-08-31T10:51:55.934Z,97554.00
2022-08-31T10:54:13.241Z,97556.13
2022-08-31T10:56:24.061Z,97556.56
2022-08-31T10:58:37.002Z,97561.38
2022-08-31T11:00:51.930Z,97553.81
2022-08-31T11:03:05.887Z,97550.47
2022-08-31T11:05:27.035Z,97555.03
2022-08-31T11:07:42.124Z,97557.56
2022-08-31T11:09:56.322Z,97555.63
2022-08-31T11:12:06.989Z,97553.56
2022-08-31T11:14:45.176Z,97551.22
2022-08-31T11:17:04.499Z,97550.53
2022-08-31T11:19:27.256Z,97549.31
2022-08-31T11:21:46.654Z,97551.53
2022-08-31T11:24:02.931Z,97549.72
2022-08-31T11:26:34.829Z,97552.03
2022-08-31T11:28:39.885Z,97551.66
2022-08-31T11:30:51.036Z,97553.38
2022-08-31T11:32:57.591Z,97549.13
2022-08-31T11:35:03.641Z,97547.34
2022-08-31T11:37:07.401Z,97540.22
2022-08-31T11:39:36.912Z,97539.59
2022-08-31T11:41:47.501Z,97539.50
2022-08-31T11:43:52.232Z,97545.75
2022-08-31T11:45:56.344Z,97539.72
2022-08-31T11:47:59.434Z,97538.91
2022-08-31T11:50:05.454Z,97530.09
2022-08-31T11:52:29.569Z,97530.22
2022-08-31T11:55:06.677Z,97535.63
2022-08-31T11:57:15.797Z,97531.88
2022-08-31T11:59:26.542Z,97528.75
2022-08-31T12:01:36.592Z,97529.19
2022-08-31T12:04:03.369Z,97525.69
2022-08-31T12:06:09.068Z,97524.38
2022-08-31T12:08:15.189Z,97521.16
2022-08-31T12:10:35.274Z,97516.25
2022-08-31T12:13:07.339Z,97513.84
2022-08-31T12:15:15.480Z,97521.44
2022-08-31T12:17:24.523Z,97518.94
2022-08-31T12:19:59.109Z,97518.44
2022-08-31T12:22:32.217Z,97518.19
2022-08-31T12:24:45.667Z,97515.78
2022-08-31T12:27:03.266Z,97513.72
2022-08-31T12:29:22.380Z,97510.13
2022-08-31T12:31:25.385Z,97508.19
2022-08-31T12:33:30.663Z,97509.03
2022-08-31T12:35:34.235Z,97503.00
2022-08-31T12:37:39.645Z,97500.31
2022-08-31T12:39:43.539Z,97512.72
2022-08-31T12:41:50.863Z,97507.97
2022-08-31T12:43:53.522Z,97502.50
2022-08-31T12:46:21.092Z,97500.78
2022-08-31T12:48:39.342Z,97502.78
2022-08-31T12:50:48.331Z,97504.66
2022-08-31T12:53:15.306Z,97501.69
2022-08-31T12:55:38.651Z,97495.53
2022-08-31T12:57:51.499Z,97490.53
2022-08-31T13:00:04.221Z,97492.56
2022-08-31T13:02:12.215Z,97488.66
2022-08-31T13:04:16.625Z,97487.94
2022-08-31T13:06:25.508Z,97487.38
2022-08-31T13:08:28.433Z,97492.41
2022-08-31T13:10:34.645Z,97488.75
2022-08-31T13:12:38.177Z,97491.84
2022-08-31T13:14:43.477Z,97489.91
2022-08-31T13:16:49.350Z,97491.28
2022-08-31T13:19:02.894Z,97485.78
2022-08-31T13:21:06.695Z,97491.78
2022-08-31T13:23:11.359Z,97489.19
2022-08-31T13:25:19.293Z,97484.81
2022-08-31T13:27:23.958Z,97490.09
2022-08-31T13:29:26.589Z,97484.72
2022-08-31T13:31:31.572Z,97486.63
2022-08-31T13:33:37.171Z,97483.75
2022-08-31T13:35:49.686Z,97481.63
2022-08-31T13:38:04.881Z,97483.00
2022-08-31T13:40:11.950Z,97480.88
2022-08-31T13:42:35.442Z,97480.50
2022-08-31T13:44:46.834Z,97480.03
2022-08-31T13:47:01.177Z,97477.06
2022-08-31T13:49:08.139Z,97486.63
2022-08-31T13:51:19.573Z,97479.19
2022-08-31T13:53:39.369Z,97483.19
2022-08-31T13:55:44.004Z,97480.09
2022-08-31T13:57:59.692Z,97478.91
2022-08-31T14:00:29.571Z,97474.47
2022-08-31T14:02:37.189Z,97472.06
2022-08-31T14:05:00.460Z,97476.53
2022-08-31T14:07:04.660Z,97475.47
2022-08-31T14:09:17.371Z,97480.19
2022-08-31T14:11:21.780Z,97469.81
2022-08-31T14:13:27.032Z,97474.28
2022-08-31T14:15:36.563Z,97473.56
2022-08-31T14:17:42.817Z,97468.34
2022-08-31T14:19:46.078Z,97469.09
2022-08-31T14:21:50.148Z,97475.84
2022-08-31T14:23:58.972Z,97471.84
2022-08-31T14:26:04.058Z,97472.19
2022-08-31T14:28:09.058Z,97473.25
2022-08-31T14:30:12.255Z,97476.84
2022-08-31T14:32:14.899Z,97474.25
2022-08-31T14:34:23.081Z,97473.50
2022-08-31T14:36:27.867Z,97468.22
2022-08-31T14:38:32.483Z,97469.03
2022-08-31T14:40:37.388Z,97462.72
2022-08-31T14:42:40.531Z,97465.56
2022-08-31T14:44:45.971Z,97459.59
2022-08-31T14:46:48.552Z,97458.78
2022-08-31T14:48:51.241Z,97449.94
2022-08-31T14:50:53.819Z,97448.44
2022-08-31T14:52:57.484Z,97447.06
2022-08-31T14:55:00.963Z,97442.72
2022-08-31T14:57:09.592Z,97435.16
2022-08-31T14:59:13.909Z,97437.50
2022-08-31T15:01:17.448Z,97436.22
2022-08-31T15:03:24.358Z,97430.63
2022-08-31T15:05:26.980Z,97436.19
2022-08-31T15:07:32.052Z,97437.75
2022-08-31T15:09:36.001Z,97430.34
2022-08-31T15:11:39.853Z,97435.56
2022-08-31T15:13:43.883Z,97423.72
2022-08-31T15:15:49.373Z,97435.94
2022-08-31T15:17:52.815Z,97429.38
2022-08-31T15:19:55.826Z,97431.94
2022-08-31T15:22:02.980Z,97429.56
2022-08-31T15:24:06.083Z,97430.81
2022-08-31T15:26:12.388Z,97428.03
2022-08-31T15:28:15.336Z,97434.59
2022-08-31T15:30:20.315Z,97437.25
2022-08-31T15:32:22.994Z,97431.38
2022-08-31T15:34:29.480Z,97429.13
2022-08-31T15:36:32.718Z,97431.38
2022-08-31T15:38:36.737Z,97426.63
2022-08-31T15:40:39.836Z,97426.91
2022-08-31T15:42:43.612Z,97429.56
2022-08-31T15:44:56.805Z,97425.75
2022-08-31T15:47:18.340Z,97428.84
2022-08-31T15:49:20.932Z,97427.78
2022-08-31T15:51:27.846Z,97422.56
2022-08-31T15:53:32.070Z,97432.25
2022-08-31T15:55:35.244Z,97428.16
2022-08-31T15:57:39.047Z,97434.06
2022-08-31T15:59:43.805Z,97434.88
2022-08-31T16:01:46.596Z,97434.06
2022-08-31T16:03:53.577Z,97436.31
2022-08-31T16:05:56.336Z,97433.38
2022-08-31T16:07:59.076Z,97428.72
2022-08-31T16:10:01.819Z,97423.81
2022-08-31T16:12:05.423Z,97425.47
2022-08-31T16:14:11.256Z,97423.50
2022-08-31T16:16:15.222Z,97424.06
2022-08-31T16:18:18.562Z,97416.75
2022-08-31T16:20:23.400Z,97402.16
2022-08-31T16:22:30.466Z,97410.28
2022-08-31T16:24:37.490Z,97415.16
2022-08-31T16:26:43.315Z,97412.78
2022-08-31T16:28:46.467Z,97401.94
2022-08-31T16:30:49.431Z,97403.75
2022-08-31T16:32:54.118Z,97398.47
2022-08-31T16:34:57.074Z,97402.78
2022-08-31T16:37:07.181Z,97408.66
2022-08-31T16:39:10.193Z,97403.84
2022-08-31T16:41:13.737Z,97413.03
2022-08-31T16:43:16.448Z,97408.84
2022-08-31T16:45:19.166Z,97403.81
2022-08-31T16:47:21.948Z,97407.78
2022-08-31T16:49:36.705Z,97396.72
2022-08-31T16:51:39.680Z,97402.31
2022-08-31T16:53:47.591Z,97397.22
2022-08-31T16:55:50.243Z,97404.47
2022-08-31T16:57:52.976Z,97404.75
2022-08-31T16:59:56.954Z,97403.22
2022-08-31T17:01:59.675Z,97402.50
2022-08-31T17:04:04.767Z,97402.53
2022-08-31T17:06:07.835Z,97396.78
2022-08-31T17:08:14.790Z,97404.13
2022-08-31T17:10:19.126Z,97391.47
2022-08-31T17:12:26.180Z,97402.50
2022-08-31T17:14:33.926Z,97394.19
2022-08-31T17:16:38.722Z,97388.81
2022-08-31T17:18:44.291Z,97389.91
2022-08-31T17:20:46.977Z,97388.34
2022-08-31T17:22:50.142Z,97389.91
2022-08-31T17:24:57.859Z,97382.78
2022-08-31T17:27:04.663Z,97386.88
2022-08-31T17:29:08.084Z,97389.56
2022-08-31T17:31:11.293Z,97391.19
2022-08-31T17:33:14.207Z,97392.50
2022-08-31T17:35:18.529Z,97382.84
2022-08-31T17:37:25.192Z,97394.03
2022-08-31T17:39:29.029Z,97400.22
2022-08-31T17:41:31.700Z,97395.78
2022-08-31T17:43:38.281Z,97394.72
2022-08-31T17:45:40.990Z,97400.75
2022-08-31T17:47:43.679Z,97394.63
2022-08-31T17:49:46.986Z,97407.78
2022-08-31T17:51:51.191Z,97399.59
2022-08-31T17:53:55.367Z,97394.31
2022-08-31T17:55:58.093Z,97399.00
2022-08-31T17:58:00.764Z,97402.75
2022-08-31T18:00:06.773Z,97407.69
2022-08-31T18:02:12.275Z,97409.34
2022-08-31T18:04:15.813Z,97406.44
2022-08-31T18:06:19.223Z,97412.22
2022-08-31T18:08:24.501Z,97414.16
2022-08-31T18:10:27.714Z,97419.56
2022-08-31T18:12:30.769Z,97430.78
2022-08-31T18:14:34.679Z,97423.41
2022-08-31T18:16:39.501Z,97428.09
2022-08-31T18:18:46.114Z,97427.22
2022-08-31T18:20:48.823Z,97426.00
2022-08-31T18:22:52.685Z,97431.31
2022-08-31T18:24:55.885Z,97429.34
2022-08-31T18:26:59.221Z,97434.13
2022-08-31T18:29:02.077Z,97434.63
2022-08-31T18:31:07.636Z,97435.78
2022-08-31T18:33:14.924Z,97445.66
2022-08-31T18:35:18.016Z,97447.00
2022-08-31T18:37:22.242Z,97442.69
2022-08-31T18:39:50.039Z,97455.31
2022-08-31T18:42:07.548Z,97449.91
2022-08-31T18:44:28.599Z,97452.78
2022-08-31T18:46:31.311Z,97454.13
2022-08-31T18:48:35.553Z,97455.53
2022-08-31T18:50:38.607Z,97452.72
2022-08-31T18:52:44.135Z,97454.81
2022-08-31T18:54:53.116Z,97454.38
2022-08-31T18:56:55.942Z,97444.66
2022-08-31T18:58:59.578Z,97441.16
2022-08-31T19:01:02.610Z,97443.81
2022-08-31T19:03:05.943Z,97438.13
2022-08-31T19:05:12.728Z,97445.81
2022-08-31T19:07:15.929Z,97445.81
2022-08-31T19:09:18.939Z,97450.09
2022-08-31T19:11:21.944Z,97451.59
2022-08-31T19:13:26.257Z,97448.78
2022-08-31T19:15:35.398Z,97446.56
2022-08-31T19:17:40.280Z,97447.41
2022-08-31T19:19:43.008Z,97447.00
2022-08-31T19:21:47.115Z,97448.91
2022-08-31T19:23:51.463Z,97448.88
2022-08-31T19:25:54.806Z,97450.38
2022-08-31T19:27:57.749Z,97446.13
2022-08-31T19:30:00.524Z,97448.06
2022-08-31T19:32:05.751Z,97443.47
2022-08-31T19:34:08.897Z,97438.31
2022-08-31T19:36:12.653Z,97440.84
2022-08-31T19:38:16.672Z,97437.25
2022-08-31T19:40:35.530Z,97444.56
2022-08-31T19:42:40.593Z,97434.31
2022-08-31T19:47:25.519Z,97441.28
2022-08-31T19:49:31.097Z,97452.81
2022-08-31T19:51:36.029Z,97449.31
2022-08-31T19:53:42.623Z,97452.16
2022-08-31T19:55:50.428Z,97453.97
2022-08-31T19:57:54.180Z,97453.09
2022-08-31T19:59:57.028Z,97445.41
2022-08-31T20:02:02.856Z,97455.22
2022-08-31T20:04:15.868Z,97446.78
2022-08-31T20:06:22.349Z,97447.63
2022-08-31T20:08:25.041Z,97442.78
2022-08-31T20:10:30.087Z,97443.81
2022-08-31T20:12:33.220Z,97451.00
2022-08-31T20:14:36.331Z,97451.22
2022-08-31T20:16:41.766Z,97448.69
2022-08-31T20:18:47.053Z,97451.22
2022-08-31T20:20:52.944Z,97442.66
2022-08-31T20:22:55.724Z,97448.03
2022-08-31T20:25:01.010Z,97443.59
2022-08-31T20:27:10.080Z,97437.59
2022-08-31T20:29:13.697Z,97431.56
2022-08-31T20:31:17.072Z,97437.47
2022-08-31T20:33:20.451Z,97439.91
2022-08-31T20:35:23.231Z,97439.03
2022-08-31T20:37:27.571Z,97433.56
2022-08-31T20:39:32.985Z,97439.69
2022-08-31T20:41:38.694Z,97436.28
2022-08-31T20:43:44.718Z,97436.63
2022-08-31T20:45:50.332Z,97432.41
2022-08-31T20:48:10.711Z,97435.44
2022-08-31T20:50:14.192Z,97434.69
2022-08-31T20:52:17.856Z,97438.94
2022-08-31T20:54:20.461Z,97434.31
2022-08-31T20:56:26.195Z,97435.34
2022-08-31T20:58:32.877Z,97444.13
2022-08-31T21:00:43.496Z,97426.69
2022-08-31T21:02:47.010Z,97427.63
2022-08-31T21:04:50.132Z,97428.38
2022-08-31T21:06:53.257Z,97427.84
2022-08-31T21:08:56.770Z,97433.13
2022-08-31T21:10:59.464Z,97430.66
2022-08-31T21:13:02.454Z,97435.03
2022-08-31T21:15:12.302Z,97442.09
2022-08-31T21:17:16.385Z,97433.41
2022-08-31T21:19:22.495Z,97437.94
2022-08-31T21:21:26.356Z,97434.06
2022-08-31T21:23:30.820Z,97428.78
2022-08-31T21:25:34.745Z,97426.44
2022-08-31T21:27:39.736Z,97421.25
2022-08-31T21:29:46.793Z,97416.09
2022-08-31T21:31:56.862Z,97417.00
2022-08-31T21:34:06.804Z,97425.22
2022-08-31T21:36:13.279Z,97425.09
2022-08-31T21:38:15.877Z,97428.06
2022-08-31T21:40:18.859Z,97435.22
2022-08-31T21:42:21.573Z,97437.13
2022-08-31T21:44:24.451Z,97433.56
2022-08-31T21:46:29.681Z,97439.47
2022-08-31T21:48:34.175Z,97433.56
2022-08-31T21:50:38.178Z,97424.13
2022-08-31T21:52:40.739Z,97440.94
2022-08-31T21:54:44.755Z,97431.72
2022-08-31T21:56:51.773Z,97434.53
2022-08-31T21:58:54.409Z,97437.53
2022-08-31T22:00:57.406Z,97441.53
2022-08-31T22:03:00.084Z,97445.28
2022-08-31T22:05:08.554Z,97438.44
2022-08-31T22:07:14.043Z,97441.72
2022-08-31T22:09:19.089Z,97448.88
2022-08-31T22:11:24.124Z,97447.28
2022-08-31T22:13:27.299Z,97454.16
2022-08-31T22:15:35.958Z,97457.28
2022-08-31T22:18:01.988Z,97458.50
2022-08-31T22:20:02.550Z,97455.22
2022-08-31T22:22:08.012Z,97457.13
2022-08-31T22:24:26.568Z,97456.56
2022-08-31T22:26:33.444Z,97451.69
2022-08-31T22:28:36.382Z,97462.44
2022-08-31T22:30:39.333Z,97458.94
2022-08-31T22:32:41.935Z,97466.84
2022-08-31T22:34:46.033Z,97460.81
2022-08-31T22:36:50.677Z,97454.91
2022-08-31T22:38:53.305Z,97454.16
2022-08-31T22:40:58.001Z,97460.38
2022-08-31T22:43:00.559Z,97455.00
2022-08-31T22:45:09.291Z,97453.69
2022-08-31T22:47:11.916Z,97445.88
2022-08-31T22:49:15.829Z,97446.34
2022-08-31T22:51:19.366Z,97450.69
2022-08-31T22:53:22.046Z,97456.25
2022-08-31T22:55:24.738Z,97444.88
2022-08-31T22:57:28.687Z,97449.28
2022-08-31T22:59:31.269Z,97446.56
2022-08-31T23:01:36.399Z,97449.38
2022-08-31T23:03:39.043Z,97444.13
2022-08-31T23:05:44.176Z,97437.22
2022-08-31T23:07:47.583Z,97433.19
2022-08-31T23:09:50.458Z,97427.75
2022-08-31T23:11:53.062Z,97427.28
2022-08-31T23:14:04.207Z,97430.38
2022-08-31T23:16:11.076Z,97429.03
2022-08-31T23:18:16.510Z,97425.97
2022-08-31T23:20:23.821Z,97423.13
2022-08-31T23:22:27.673Z,97424.34
2022-08-31T23:24:33.948Z,97422.75
2022-08-31T23:26:37.766Z,97422.66
2022-08-31T23:28:41.020Z,97422.00
2022-08-31T23:30:45.363Z,97416.88
2022-08-31T23:32:48.466Z,97420.56
2022-08-31T23:34:52.362Z,97415.41
2022-08-31T23:36:55.569Z,97421.50
2022-08-31T23:39:03.821Z,97419.06
2022-08-31T23:41:06.699Z,97415.78
2022-08-31T23:43:18.116Z,97426.59
2022-08-31T23:45:21.023Z,97420.75
2022-08-31T23:47:29.659Z,97421.13
2022-08-31T23:49:32.231Z,97420.31
2022-08-31T23:51:38.263Z,97416.81
2022-08-31T23:53:40.824Z,97414.94
2022-08-31T23:55:45.019Z,97407.78
2022-08-31T23:57:48.446Z,97409.56
2022-08-31T23:59:52.939Z,97411.25
